Time;durP1;ratioP1;P1;durP2;ratioP2;P2;SDS_P1;SDS_P2;PMS_P1;PMS_P2;Temp;Humidity;BMP_temperature;BMP_pressure;BME280_temperature;BME280_humidity;BME280_pressure;Samples;Min_cycle;Max_cycle;Signal;HPM_P1;HPM_P2
2023/03/04 00:01:49;;;;;;;83.55;43.63;;;;;;;0.82;67.27;100513.02;1468268;89;21385;-80
2023/03/04 00:04:16;;;;;;;86.87;43.10;;;;;;;0.82;66.93;100515.63;1463703;89;21495;-81
2023/03/04 00:06:43;;;;;;;77.60;41.18;;;;;;;0.80;66.68;100514.86;1462392;89;21356;-79
2023/03/04 00:09:09;;;;;;;81.17;42.35;;;;;;;0.72;68.21;100513.16;1463463;89;22406;-80
2023/03/04 00:11:35;;;;;;;87.22;44.33;;;;;;;0.63;69.02;100514.92;1465525;89;21370;-81
2023/03/04 00:14:02;;;;;;;84.60;42.58;;;;;;;0.60;68.40;100514.63;1469383;89;21319;-81
2023/03/04 00:16:28;;;;;;;74.45;41.33;;;;;;;0.57;68.16;100512.66;1464403;89;21370;-80
2023/03/04 00:18:55;;;;;;;83.15;41.95;;;;;;;0.56;68.03;100505.30;1460949;89;21385;-81
2023/03/04 00:21:22;;;;;;;77.85;41.02;;;;;;;0.53;68.05;100513.75;1452674;89;21502;-81
2023/03/04 00:23:48;;;;;;;76.05;41.05;;;;;;;0.47;68.73;100502.36;1461875;89;21466;-83
2023/03/04 00:26:15;;;;;;;83.07;43.38;;;;;;;0.42;68.33;100490.88;1456541;88;21533;-80
2023/03/04 00:28:42;;;;;;;85.80;45.98;;;;;;;0.36;69.05;100499.84;1468506;89;21457;-81
2023/03/04 00:31:09;;;;;;;86.20;44.15;;;;;;;0.28;69.79;100491.59;1458203;89;21363;-82
2023/03/04 00:33:36;;;;;;;81.55;41.83;;;;;;;0.23;69.24;100490.98;1461077;89;22169;-81
2023/03/04 00:36:04;;;;;;;78.45;41.68;;;;;;;0.18;69.10;100487.81;1468743;89;21385;-80
2023/03/04 00:38:30;;;;;;;84.00;43.30;;;;;;;0.13;69.00;100483.30;1463552;89;21558;-81
2023/03/04 00:40:56;;;;;;;76.87;41.02;;;;;;;0.04;70.48;100481.17;1474859;89;22295;-81
2023/03/04 00:43:23;;;;;;;78.05;41.85;;;;;;;-0.02;70.52;100487.06;1461097;89;21356;-82
2023/03/04 00:45:49;;;;;;;82.62;42.05;;;;;;;-0.07;70.30;100482.55;1459954;89;21451;-80
2023/03/04 00:48:15;;;;;;;97.65;46.73;;;;;;;-0.16;70.38;100480.42;1467319;89;21363;-81
2023/03/04 00:50:43;;;;;;;84.72;43.98;;;;;;;-0.21;71.23;100478.51;1459440;88;22324;-81
2023/03/04 00:53:10;;;;;;;79.97;42.93;;;;;;;-0.27;70.82;100477.52;1460790;89;22324;-79
2023/03/04 00:55:37;;;;;;;81.40;43.08;;;;;;;-0.31;70.88;100478.14;1464906;89;21386;-79
2023/03/04 00:58:03;;;;;;;90.70;46.90;;;;;;;-0.34;70.04;100470.50;1462694;89;21749;-80
2023/03/04 01:00:29;;;;;;;82.60;41.68;;;;;;;-0.37;71.37;100473.72;1463579;89;21385;-80
2023/03/04 01:02:55;;;;;;;84.77;43.45;;;;;;;-0.42;72.26;100466.59;1462939;89;21312;-80
2023/03/04 01:05:21;;;;;;;89.20;45.50;;;;;;;-0.47;71.58;100466.35;1463386;89;21521;-80
2023/03/04 01:07:48;;;;;;;86.65;46.08;;;;;;;-0.50;72.18;100463.91;1463153;88;22346;-81
2023/03/04 01:10:15;;;;;;;83.58;43.20;;;;;;;-0.54;72.20;100463.69;1457699;89;21371;-80
2023/03/04 01:12:42;;;;;;;84.95;45.52;;;;;;;-0.60;73.02;100463.99;1470596;89;21319;-80
2023/03/04 01:15:11;;;;;;;84.05;44.00;;;;;;;-0.65;73.42;100455.58;1471834;89;22307;-80
2023/03/04 01:17:38;;;;;;;83.40;43.60;;;;;;;-0.71;73.75;100455.88;1446067;89;21459;-81
2023/03/04 01:20:07;;;;;;;78.72;41.35;;;;;;;-0.77;73.78;100452.28;1465509;88;22311;-81
2023/03/04 01:22:33;;;;;;;82.10;43.40;;;;;;;-0.80;73.50;100452.44;1452286;89;22072;-80
2023/03/04 01:24:59;;;;;;;88.82;43.90;;;;;;;-0.82;73.13;100453.80;1460699;88;21334;-80
2023/03/04 01:27:25;;;;;;;95.85;46.80;;;;;;;-0.85;72.74;100453.95;1463185;89;21356;-80
2023/03/04 01:29:52;;;;;;;86.53;43.23;;;;;;;-0.88;74.61;100449.36;1462562;89;21370;-81
2023/03/04 01:32:18;;;;;;;91.02;47.30;;;;;;;-0.91;73.69;100448.59;1464659;89;21356;-81
2023/03/04 01:34:45;;;;;;;81.08;41.75;;;;;;;-0.93;74.28;100453.00;1464546;89;21518;-80
2023/03/04 01:37:14;;;;;;;86.25;44.90;;;;;;;-0.96;74.39;100447.95;1461580;89;21408;-80
2023/03/04 01:39:40;;;;;;;92.85;45.95;;;;;;;-0.97;74.50;100445.45;1470283;89;21390;-81
2023/03/04 01:42:18;;;;;;;86.05;44.00;;;;;;;-1.01;74.27;100443.90;1465109;89;22564;-80
2023/03/04 01:44:45;;;;;;;91.92;47.38;;;;;;;-1.04;74.44;100444.88;1455048;89;22273;-79
2023/03/04 01:47:11;;;;;;;96.50;44.13;;;;;;;-1.05;73.85;100437.18;1451109;89;21296;-81
2023/03/04 01:49:38;;;;;;;90.67;47.33;;;;;;;-1.05;73.95;100434.58;1461316;88;21621;-80
2023/03/04 01:52:05;;;;;;;93.95;47.58;;;;;;;-1.07;74.37;100428.61;1458136;89;21504;-81
2023/03/04 01:54:31;;;;;;;93.87;48.90;;;;;;;-1.10;74.85;100427.00;1473526;89;21275;-80
2023/03/04 01:56:59;;;;;;;94.03;46.48;;;;;;;-1.12;74.39;100423.66;1466275;89;21540;-80
2023/03/04 01:59:30;;;;;;;91.35;48.05;;;;;;;-1.13;74.06;100425.84;1452013;88;21401;-81
2023/03/04 02:01:59;;;;;;;70.30;36.75;;;;;;;-1.14;74.10;100417.22;1468886;89;21335;-80
2023/03/04 02:04:30;;;;;;;102.53;49.88;;;;;;;-1.16;73.85;100409.11;1470446;88;21327;-80
2023/03/04 02:06:58;;;;;;;93.50;47.90;;;;;;;-1.17;74.00;100404.84;1468316;89;21378;-81
2023/03/04 02:09:25;;;;;;;92.27;45.52;;;;;;;-1.21;74.24;100400.26;1473044;89;21342;-80
2023/03/04 02:11:52;;;;;;;90.50;48.60;;;;;;;-1.24;74.03;100399.08;1455323;89;21430;-81
2023/03/04 02:14:20;;;;;;;102.55;48.75;;;;;;;-1.24;74.85;100396.95;1468632;88;21555;-81
2023/03/04 02:16:48;;;;;;;95.47;48.15;;;;;;;-1.22;74.32;100388.63;1462384;89;22384;-81
2023/03/04 02:19:56;;;;;;;94.97;49.13;;;;;;;-1.21;74.18;100386.41;1472323;89;21548;-81
2023/03/04 02:22:23;;;;;;;102.05;47.70;;;;;;;-1.20;74.76;100385.52;1464115;88;21653;-83
2023/03/04 02:25:00;;;;;;;93.65;46.60;;;;;;;-1.21;74.58;100376.02;1466506;89;22391;-82
2023/03/04 02:27:27;;;;;;;92.80;45.65;;;;;;;-1.22;74.42;100369.99;1470932;89;22280;-82
2023/03/04 02:29:53;;;;;;;97.57;48.30;;;;;;;-1.24;76.29;100368.38;1463777;89;22368;-81
2023/03/04 02:32:19;;;;;;;97.45;47.15;;;;;;;-1.27;76.47;100365.93;1465107;89;21475;-82
2023/03/04 02:34:48;;;;;;;89.03;44.23;;;;;;;-1.29;76.51;100370.38;1449322;89;21452;-82
2023/03/04 02:37:17;;;;;;;92.65;45.90;;;;;;;-1.31;75.77;100361.81;1467627;88;21333;-82
2023/03/04 02:39:46;;;;;;;103.55;48.28;;;;;;;-1.36;76.52;100375.84;1461003;88;21453;-80
2023/03/04 02:42:12;;;;;;;96.17;48.83;;;;;;;-1.40;76.60;100370.42;1466222;89;21481;-81
2023/03/04 02:44:46;;;;;;;96.90;46.65;;;;;;;-1.40;76.33;100365.23;1467823;89;22347;-80
2023/03/04 02:47:18;;;;;;;92.82;45.78;;;;;;;-1.39;75.95;100355.22;1462619;89;22207;-81
2023/03/04 02:49:45;;;;;;;88.87;43.28;;;;;;;-1.38;76.06;100356.08;1450284;89;21430;-81
2023/03/04 02:52:25;;;;;;;93.95;46.18;;;;;;;-1.38;76.13;100349.13;1456022;89;21512;-81
2023/03/04 02:54:52;;;;;;;97.78;48.30;;;;;;;-1.39;76.17;100347.42;1464045;88;21408;-81
2023/03/04 02:57:18;;;;;;;91.08;44.73;;;;;;;-1.42;76.35;100338.95;1465926;88;21386;-81
2023/03/04 02:59:44;;;;;;;90.40;46.73;;;;;;;-1.45;75.84;100339.94;1460616;89;21430;-81
2023/03/04 03:02:10;;;;;;;95.05;47.73;;;;;;;-1.48;76.19;100334.89;1469532;89;21518;-80
2023/03/04 03:04:39;;;;;;;108.45;48.00;;;;;;;-1.49;75.65;100322.00;1469782;88;21304;-80
2023/03/04 03:07:06;;;;;;;91.70;48.30;;;;;;;-1.49;75.52;100324.14;1469201;89;21320;-81
2023/03/04 03:09:32;;;;;;;91.45;46.13;;;;;;;-1.49;75.51;100324.59;1467111;89;21385;-79
2023/03/04 03:11:58;;;;;;;86.20;43.80;;;;;;;-1.51;75.15;100325.95;1466245;89;22288;-80
2023/03/04 03:14:24;;;;;;;93.75;46.77;;;;;;;-1.53;75.11;100327.78;1461054;89;21312;-81
2023/03/04 03:16:51;;;;;;;93.20;47.75;;;;;;;-1.55;76.57;100328.33;1466727;88;21325;-81
2023/03/04 03:19:17;;;;;;;85.72;44.48;;;;;;;-1.57;77.02;100330.61;1448204;89;21551;-81
2023/03/04 03:21:43;;;;;;;82.60;43.00;;;;;;;-1.61;76.63;100334.65;1458158;89;22274;-80
2023/03/04 03:24:09;;;;;;;96.95;45.73;;;;;;;-1.61;76.18;100335.11;1467872;89;21377;-80
2023/03/04 03:26:35;;;;;;;87.37;43.45;;;;;;;-1.63;75.83;100347.31;1458743;88;21356;-80
2023/03/04 03:29:01;;;;;;;86.70;43.90;;;;;;;-1.70;75.82;100348.03;1463270;89;21370;-80
2023/03/04 03:31:28;;;;;;;83.20;44.73;;;;;;;-1.74;75.14;100348.27;1458783;89;22310;-80
2023/03/04 03:33:54;;;;;;;82.33;40.67;;;;;;;-1.81;75.40;100345.13;1473659;88;21511;-80
2023/03/04 03:36:20;;;;;;;90.17;43.20;;;;;;;-1.78;75.36;100350.59;1468910;88;21378;-79
2023/03/04 03:38:47;;;;;;;92.62;45.10;;;;;;;-1.76;75.76;100347.02;1460049;88;21363;-79
2023/03/04 03:41:13;;;;;;;85.72;42.80;;;;;;;-1.73;75.95;100342.98;1463496;88;22221;-80
2023/03/04 03:43:39;;;;;;;84.83;44.67;;;;;;;-1.66;75.73;100347.45;1440844;89;21400;-79
2023/03/04 03:46:05;;;;;;;100.47;48.83;;;;;;;-1.58;75.47;100341.45;1466828;89;21260;-80
2023/03/04 03:48:31;;;;;;;90.77;45.70;;;;;;;-1.51;76.05;100346.72;1462738;89;21503;-80
2023/03/04 03:50:57;;;;;;;97.10;49.13;;;;;;;-1.44;75.91;100346.83;1458787;88;22354;-80
2023/03/04 03:53:24;;;;;;;105.00;53.68;;;;;;;-1.35;75.70;100342.95;1469452;89;21463;-80
2023/03/04 03:55:50;;;;;;;104.03;53.63;;;;;;;-1.26;75.56;100333.88;1456115;89;21407;-79
2023/03/04 03:58:16;;;;;;;94.95;49.13;;;;;;;-1.19;76.10;100331.34;1449832;89;21497;-80
2023/03/04 04:00:43;;;;;;;94.25;49.35;;;;;;;-1.10;75.82;100328.30;1465360;89;21260;-82
2023/03/04 04:03:13;;;;;;;93.33;49.23;;;;;;;-1.03;75.90;100321.05;1445661;89;21605;-81
2023/03/04 04:05:40;;;;;;;103.53;51.53;;;;;;;-0.95;76.33;100314.99;1456382;89;21416;-81
2023/03/04 04:08:06;;;;;;;95.65;46.63;;;;;;;-0.87;76.20;100308.13;1463233;89;21378;-80
2023/03/04 04:10:32;;;;;;;98.58;52.03;;;;;;;-0.79;75.97;100314.61;1467349;89;21615;-80
2023/03/04 04:12:58;;;;;;;101.00;49.85;;;;;;;-0.74;76.21;100306.13;1465427;89;21296;-80
2023/03/04 04:15:24;;;;;;;88.30;44.18;;;;;;;-0.65;76.27;100302.21;1446192;89;21318;-79
2023/03/04 04:17:50;;;;;;;92.97;44.38;;;;;;;-0.59;75.82;100301.89;1467424;89;22704;-79
2023/03/04 04:20:17;;;;;;;93.85;45.70;;;;;;;-0.52;75.46;100299.37;1460736;89;21356;-79
2023/03/04 04:22:45;;;;;;;99.85;50.38;;;;;;;-0.43;76.37;100306.28;1465723;89;21427;-80
2023/03/04 04:25:11;;;;;;;103.25;52.30;;;;;;;-0.38;76.15;100307.72;1465085;88;22151;-80
2023/03/04 04:27:37;;;;;;;107.47;51.23;;;;;;;-0.34;76.73;100309.25;1458717;88;22553;-79
2023/03/04 04:30:05;;;;;;;100.33;47.70;;;;;;;-0.31;77.02;100315.59;1465288;89;21378;-80
2023/03/04 04:32:32;;;;;;;102.58;47.88;;;;;;;-0.28;77.05;100315.42;1464506;89;22398;-80
2023/03/04 04:34:58;;;;;;;101.80;48.68;;;;;;;-0.26;77.67;100314.89;1465657;89;21430;-81
2023/03/04 04:37:24;;;;;;;101.40;51.28;;;;;;;-0.23;78.19;100315.20;1465327;89;21518;-81
2023/03/04 04:39:50;;;;;;;101.22;49.10;;;;;;;-0.18;78.48;100318.37;1462325;89;21378;-81
2023/03/04 04:42:17;;;;;;;104.70;49.83;;;;;;;-0.12;77.74;100323.70;1449893;89;22338;-81
2023/03/04 04:44:43;;;;;;;101.33;47.75;;;;;;;-0.08;78.56;100327.84;1454853;88;21489;-81
2023/03/04 04:47:09;;;;;;;103.87;55.33;;;;;;;-0.07;78.93;100326.91;1468345;89;21356;-81
2023/03/04 04:49:35;;;;;;;98.55;48.23;;;;;;;-0.05;78.95;100331.11;1464764;89;21369;-81
2023/03/04 04:52:01;;;;;;;126.00;52.88;;;;;;;-0.05;79.34;100323.30;1464090;89;21498;-81
2023/03/04 04:54:28;;;;;;;136.05;53.70;;;;;;;-0.01;79.68;100317.00;1460427;89;21370;-81
2023/03/04 04:56:54;;;;;;;147.87;57.40;;;;;;;0.04;80.04;100306.83;1466916;89;22450;-80
2023/03/04 04:59:21;;;;;;;142.98;55.35;;;;;;;0.08;80.80;100305.25;1460569;89;22366;-81
2023/03/04 05:01:47;;;;;;;186.82;66.12;;;;;;;0.13;80.98;100303.71;1465003;89;21362;-80
2023/03/04 05:04:13;;;;;;;147.30;59.93;;;;;;;0.16;81.90;100308.75;1456601;88;21433;-82
2023/03/04 05:06:40;;;;;;;179.72;61.45;;;;;;;0.20;82.38;100307.20;1447074;89;21533;-80
2023/03/04 05:09:06;;;;;;;186.32;64.30;;;;;;;0.23;84.09;100315.28;1456533;88;22369;-81
2023/03/04 05:11:33;;;;;;;189.20;70.25;;;;;;;0.25;84.63;100314.74;1468379;89;21386;-80
2023/03/04 05:13:59;;;;;;;196.22;65.70;;;;;;;0.27;84.96;100310.77;1467315;88;21503;-80
2023/03/04 05:16:25;;;;;;;182.27;67.92;;;;;;;0.28;85.11;100310.67;1474465;89;21371;-80
2023/03/04 05:18:52;;;;;;;176.50;68.35;;;;;;;0.29;85.46;100311.06;1459157;88;22199;-80
2023/03/04 05:21:18;;;;;;;164.67;65.20;;;;;;;0.32;84.44;100309.59;1464196;89;21503;-81
2023/03/04 05:23:45;;;;;;;167.62;67.95;;;;;;;0.36;84.52;100307.66;1460592;88;21274;-81
2023/03/04 05:26:15;;;;;;;156.93;58.68;;;;;;;0.39;85.70;100305.70;1464213;88;22206;-81
2023/03/04 05:28:41;;;;;;;168.37;63.55;;;;;;;0.42;84.61;100303.40;1459272;89;22280;-81
2023/03/04 05:31:08;;;;;;;168.22;65.67;;;;;;;0.44;84.90;100311.50;1466234;89;21414;-80
2023/03/04 05:33:35;;;;;;;175.93;66.57;;;;;;;0.40;86.85;100308.70;1457903;89;21355;-82
2023/03/04 05:36:05;;;;;;;178.20;67.20;;;;;;;0.41;86.55;100308.23;1458710;88;21445;-82
2023/03/04 05:38:32;;;;;;;176.27;61.05;;;;;;;0.43;86.73;100307.23;1466891;88;21462;-82
2023/03/04 05:41:01;;;;;;;155.30;59.70;;;;;;;0.48;85.97;100307.42;1458802;89;21384;-81
2023/03/04 05:43:28;;;;;;;177.40;64.82;;;;;;;0.51;85.78;100300.27;1469509;88;21326;-81
2023/03/04 05:45:55;;;;;;;176.80;64.42;;;;;;;0.53;85.89;100302.80;1467296;88;21504;-81
2023/03/04 05:48:22;;;;;;;164.93;65.35;;;;;;;0.56;86.17;100304.77;1462644;89;21378;-81
2023/03/04 05:50:56;;;;;;;167.28;63.23;;;;;;;0.54;87.22;100307.91;1464010;88;22427;-81
2023/03/04 05:53:23;;;;;;;168.78;66.22;;;;;;;0.52;88.49;100314.13;1462392;88;21518;-82
2023/03/04 05:55:50;;;;;;;166.88;61.83;;;;;;;0.54;88.92;100309.68;1462760;89;21429;-82
2023/03/04 05:58:17;;;;;;;144.95;58.23;;;;;;;0.59;89.44;100302.45;1457110;89;21340;-82
2023/03/04 06:00:44;;;;;;;126.78;52.13;;;;;;;0.58;88.69;100300.78;1472422;88;21290;-82
2023/03/04 06:03:19;;;;;;;144.00;55.65;;;;;;;0.64;88.55;100300.43;1462226;89;21569;-82
2023/03/04 06:05:46;;;;;;;141.10;57.00;;;;;;;0.71;88.24;100306.95;1467001;89;21422;-81
2023/03/04 06:08:13;;;;;;;133.90;56.63;;;;;;;0.79;87.77;100309.13;1475526;89;21542;-80
2023/03/04 06:10:41;;;;;;;134.25;57.10;;;;;;;0.84;88.65;100304.50;1470324;88;22309;-80
2023/03/04 06:17:08;;;;;;;127.02;55.78;;;;;;;0.97;88.40;100304.61;1464648;89;21473;-80
2023/03/04 06:19:36;;;;;;;129.00;56.80;;;;;;;1.05;91.78;100307.62;1460802;89;21533;-80
2023/03/04 06:22:04;;;;;;;127.07;54.45;;;;;;;1.10;94.02;100310.80;1465955;89;21384;-80
2023/03/04 06:24:30;;;;;;;132.17;59.23;;;;;;;1.17;92.10;100313.41;1464528;88;21489;-80
2023/03/04 06:26:56;;;;;;;161.87;61.87;;;;;;;1.19;94.69;100318.08;1459415;89;22412;-83
2023/03/04 06:29:22;;;;;;;157.10;63.20;;;;;;;1.24;93.24;100316.52;1456927;89;21517;-83
2023/03/04 06:31:48;;;;;;;160.60;60.73;;;;;;;1.30;93.06;100319.59;1459541;89;21602;-83
2023/03/04 06:34:14;;;;;;;155.63;62.57;;;;;;;1.38;91.99;100323.49;1444756;89;21550;-82
2023/03/04 06:36:41;;;;;;;155.90;66.23;;;;;;;1.46;91.94;100317.36;1467206;89;22096;-83
2023/03/04 06:39:08;;;;;;;131.70;58.70;;;;;;;1.51;93.83;100321.37;1466308;89;21882;-83
2023/03/04 06:41:34;;;;;;;146.73;59.43;;;;;;;1.54;94.54;100322.48;1458259;89;21700;-83
2023/03/04 06:44:00;;;;;;;137.17;58.67;;;;;;;1.52;95.43;100328.72;1466803;88;21591;-84
2023/03/04 06:46:27;;;;;;;149.80;59.23;;;;;;;1.57;94.35;100327.52;1462031;89;21708;-82
2023/03/04 06:48:53;;;;;;;135.90;57.70;;;;;;;1.63;94.90;100328.92;1455760;89;21589;-83
2023/03/04 06:51:27;;;;;;;162.97;65.00;;;;;;;1.65;94.37;100325.76;1460623;89;21869;-84
2023/03/04 06:53:59;;;;;;;156.00;64.53;;;;;;;1.65;94.52;100328.37;1453321;88;21808;-83
2023/03/04 06:56:26;;;;;;;176.53;70.00;;;;;;;1.72;93.91;100325.74;1450837;88;22130;-83
2023/03/04 06:58:52;;;;;;;150.60;62.47;;;;;;;1.77;94.10;100323.70;1459603;89;21621;-84
2023/03/04 07:01:22;;;;;;;158.97;68.33;;;;;;;1.75;97.10;100329.47;1465338;88;22697;-83
2023/03/04 07:03:56;;;;;;;171.87;70.63;;;;;;;1.78;96.64;100334.53;1463758;89;21796;-84
2023/03/04 07:06:26;;;;;;;148.97;57.50;;;;;;;1.87;95.59;100329.66;1466874;89;22527;-84
2023/03/04 07:08:52;;;;;;;164.10;68.50;;;;;;;1.81;100.00;100328.25;1460950;89;21860;-84
2023/03/04 07:11:20;;;;;;;153.30;70.00;;;;;;;1.89;99.34;100327.80;1469735;88;21569;-84
2023/03/04 07:13:48;;;;;;;142.77;62.47;;;;;;;1.99;96.89;100328.92;1453323;89;21638;-85
2023/03/04 07:16:19;;;;;;;99.57;51.83;;;;;;;2.09;98.11;100327.39;1466828;89;22688;-84
2023/03/04 07:18:46;;;;;;;91.53;48.30;;;;;;;2.23;98.61;100324.76;1466803;88;21600;-85
2023/03/04 07:21:15;;;;;;;88.93;45.80;;;;;;;2.34;96.87;100323.25;1470309;89;21355;-83
2023/03/04 07:23:42;;;;;;;85.47;45.70;;;;;;;2.43;99.23;100322.19;1474492;88;21601;-86
2023/03/04 07:26:08;;;;;;;73.73;43.20;;;;;;;2.51;99.63;100317.78;1463069;89;21662;-82
2023/03/04 07:28:43;;;;;;;81.33;44.23;;;;;;;2.60;100.00;100325.03;1446227;89;21994;-85
2023/03/04 07:31:28;;;;;;;70.47;41.20;;;;;;;2.70;99.70;100318.28;1469120;89;22507;-83
2023/03/04 07:34:08;;;;;;;79.70;45.20;;;;;;;2.83;97.76;100320.08;1464066;88;21562;-84
2023/03/04 07:36:36;;;;;;;74.58;42.30;;;;;;;2.94;96.79;100315.82;1455540;88;21501;-83
2023/03/04 07:39:04;;;;;;;79.77;44.03;;;;;;;3.06;95.99;100325.09;1466814;89;21766;-84
2023/03/04 07:41:31;;;;;;;76.73;44.13;;;;;;;3.10;96.25;100316.09;1469153;89;21774;-84
2023/03/04 07:43:58;;;;;;;87.87;49.93;;;;;;;3.03;97.30;100315.68;1463367;88;21396;-85
2023/03/04 07:46:24;;;;;;;82.90;46.33;;;;;;;3.15;95.82;100318.77;1467900;89;21560;-85
2023/03/04 07:48:54;;;;;;;75.27;44.50;;;;;;;3.19;96.66;100317.26;1471212;89;21577;-84
2023/03/04 07:51:23;;;;;;;74.20;39.93;;;;;;;3.26;95.49;100312.00;1471302;89;21481;-85
2023/03/04 07:53:54;;;;;;;75.60;42.93;;;;;;;3.26;94.73;100306.77;1470957;88;21614;-84
2023/03/04 07:56:25;;;;;;;77.27;45.28;;;;;;;3.32;93.81;100303.73;1467291;88;21685;-83
2023/03/04 07:58:55;;;;;;;81.87;48.20;;;;;;;3.40;93.46;100304.05;1462921;89;21333;-85
2023/03/04 08:01:26;;;;;;;81.82;46.30;;;;;;;3.49;93.02;100292.13;1461756;89;22812;-83
2023/03/04 08:03:52;;;;;;;74.92;42.43;;;;;;;3.57;92.09;100293.27;1462889;89;21385;-84
2023/03/04 08:06:21;;;;;;;67.83;39.90;;;;;;;3.63;91.14;100301.64;1463943;89;22399;-83
2023/03/04 08:08:49;;;;;;;63.87;40.57;;;;;;;3.70;90.60;100298.95;1454628;89;22061;-83
2023/03/04 08:11:19;;;;;;;73.70;44.90;;;;;;;3.74;90.00;100294.72;1462250;88;21693;-83
2023/03/04 08:13:46;;;;;;;74.57;42.67;;;;;;;3.82;89.09;100286.30;1461670;89;21713;-83
2023/03/04 08:16:15;;;;;;;67.93;39.30;;;;;;;3.82;89.09;100286.30;1396173;89;22668;-83
2023/03/04 08:18:44;;;;;;;65.00;36.43;;;;;;;3.88;88.40;100287.66;1464306;89;22712;-83
2023/03/04 08:21:11;;;;;;;66.67;41.03;;;;;;;3.74;88.42;100285.55;1465519;88;21830;-83
2023/03/04 08:23:40;;;;;;;70.03;39.93;;;;;;;3.65;88.86;100281.41;1460925;88;21724;-84
2023/03/04 08:26:11;;;;;;;64.30;38.87;;;;;;;3.53;89.41;100274.77;1459532;89;21747;-83
2023/03/04 08:28:37;;;;;;;72.87;43.00;;;;;;;3.55;89.18;100276.82;1464422;89;21801;-84
2023/03/04 08:31:04;;;;;;;65.80;40.60;;;;;;;3.69;89.33;100271.94;1465627;88;21400;-84
2023/03/04 08:33:31;;;;;;;67.37;41.10;;;;;;;3.77;88.48;100259.60;1474639;88;22121;-85
2023/03/04 08:35:58;;;;;;;61.00;36.93;;;;;;;3.98;88.00;100258.09;1466791;89;21744;-84
2023/03/04 08:38:25;;;;;;;62.80;36.47;;;;;;;4.17;86.08;100251.53;1461128;89;22798;-83
2023/03/04 08:40:56;;;;;;;65.27;39.73;;;;;;;4.30;85.89;100247.09;1461513;89;22835;-84
2023/03/04 08:43:23;;;;;;;62.10;37.50;;;;;;;4.30;85.89;100247.09;1472241;89;22183;-84
2023/03/04 08:45:52;;;;;;;59.23;36.00;;;;;;;4.53;84.68;100254.09;1463628;88;21377;-84
2023/03/04 08:48:20;;;;;;;56.80;35.17;;;;;;;4.53;84.68;100254.09;1465676;89;22216;-84
2023/03/04 08:50:48;;;;;;;55.70;34.70;;;;;;;4.68;83.97;100245.56;1464386;89;22058;-84
2023/03/04 08:53:16;;;;;;;63.27;39.00;;;;;;;4.84;82.66;100248.38;1460270;89;23063;-82
2023/03/04 08:55:43;;;;;;;62.40;37.07;;;;;;;5.02;81.28;100256.63;1463486;89;22110;-88
2023/03/04 08:58:13;;;;;;;61.20;37.43;;;;;;;5.14;81.07;100256.52;1463247;89;22107;-83
2023/03/04 09:00:47;;;;;;;57.27;35.83;;;;;;;5.24;80.30;100254.05;1467974;89;22040;-82
2023/03/04 09:03:12;;;;;;;58.80;34.63;;;;;;;5.21;78.61;100242.48;1456840;89;23048;-84
2023/03/04 09:05:38;;;;;;;57.20;34.90;;;;;;;5.27;78.55;100250.36;1468403;88;22051;-83
2023/03/04 09:08:04;;;;;;;56.67;34.20;;;;;;;5.29;78.26;100253.20;1461456;89;22245;-82
2023/03/04 09:10:31;;;;;;;66.33;38.93;;;;;;;5.45;78.64;100250.72;1465356;89;22051;-76
2023/03/04 09:12:58;;;;;;;59.87;36.67;;;;;;;5.58;77.77;100244.41;1463520;89;22117;-82
2023/03/04 09:15:24;;;;;;;62.97;40.50;;;;;;;5.87;77.35;100240.80;1458194;89;22149;-82
2023/03/04 09:17:51;;;;;;;62.57;36.83;;;;;;;5.87;77.35;100240.80;1458563;89;21416;-80
2023/03/04 09:20:18;;;;;;;52.33;32.20;;;;;;;6.05;76.24;100232.42;1446936;89;21481;-83
2023/03/04 09:22:45;;;;;;;54.20;31.97;;;;;;;6.14;75.71;100241.36;1470549;89;21477;-83
2023/03/04 09:25:14;;;;;;;51.27;33.80;;;;;;;6.24;74.66;100243.13;1466579;89;21370;-83
2023/03/04 09:27:41;;;;;;;56.93;33.10;;;;;;;6.38;73.79;100234.58;1460200;89;21393;-84
2023/03/04 09:30:10;;;;;;;53.03;31.33;;;;;;;6.45;73.85;100238.40;1467580;89;21444;-83
2023/03/04 09:32:36;;;;;;;47.20;30.17;;;;;;;6.64;72.85;100240.33;1462471;89;21348;-83
2023/03/04 09:35:03;;;;;;;44.53;27.80;;;;;;;6.95;72.90;100234.67;1457370;89;22307;-84
2023/03/04 09:37:29;;;;;;;45.60;28.13;;;;;;;7.41;70.87;100224.17;1468470;89;22249;-83
2023/03/04 09:39:56;;;;;;;45.97;28.17;;;;;;;7.68;66.44;100213.89;1463867;89;21496;-82
2023/03/04 09:42:33;;;;;;;45.00;28.80;;;;;;;8.28;67.13;100215.64;1452076;89;21429;-78
2023/03/04 09:45:01;;;;;;;42.87;26.00;;;;;;;8.86;64.19;100215.67;1463562;89;21459;-81
2023/03/04 09:47:29;;;;;;;46.27;29.77;;;;;;;9.35;59.11;100209.77;1467323;89;21385;-82
2023/03/04 09:50:03;;;;;;;37.57;26.60;;;;;;;9.74;58.24;100208.25;1465580;89;21334;-81
2023/03/04 09:52:53;;;;;;;35.67;22.30;;;;;;;10.13;57.97;100203.55;1469308;89;21584;-80
2023/03/04 09:55:33;;;;;;;40.52;27.05;;;;;;;10.47;56.49;100198.09;1457818;89;21489;-80
2023/03/04 09:58:32;;;;;;;41.58;27.40;;;;;;;10.54;54.79;100196.02;1464033;89;21466;-79
2023/03/04 10:01:22;;;;;;;45.80;27.57;;;;;;;10.62;53.96;100193.94;1455899;88;21703;-79
2023/03/04 10:04:00;;;;;;;36.25;25.52;;;;;;;10.96;54.64;100187.87;1469491;89;21326;-79
2023/03/04 10:06:27;;;;;;;32.40;22.33;;;;;;;10.92;51.72;100179.91;1457199;88;21523;-80
2023/03/04 10:09:05;;;;;;;37.87;25.50;;;;;;;10.94;52.85;100183.24;1445781;89;22347;-80
2023/03/04 10:11:45;;;;;;;37.07;26.50;;;;;;;11.12;51.89;100174.73;1463609;88;21503;-79
2023/03/04 10:14:38;;;;;;;37.47;27.27;;;;;;;11.19;51.57;100171.81;1462911;88;21658;-80
2023/03/04 10:17:13;;;;;;;35.63;24.53;;;;;;;11.18;49.21;100163.50;1466142;89;22280;-80
2023/03/04 10:19:53;;;;;;;35.93;24.07;;;;;;;11.23;49.00;100163.87;1460114;89;21384;-79
2023/03/04 10:22:37;;;;;;;37.38;26.10;;;;;;;11.52;50.78;100152.06;1460050;89;21616;-79
2023/03/04 10:25:29;;;;;;;40.60;28.87;;;;;;;11.49;48.90;100146.59;1458040;89;21371;-79
2023/03/04 10:28:06;;;;;;;51.17;32.13;;;;;;;11.68;49.76;100146.83;1452453;89;21422;-79
2023/03/04 10:31:10;;;;;;;40.83;27.17;;;;;;;11.79;48.31;100138.22;1469520;89;21437;-82
2023/03/04 10:33:39;;;;;;;37.17;25.33;;;;;;;11.92;49.24;100134.14;1464123;89;21489;-79
2023/03/04 10:36:17;;;;;;;38.10;27.93;;;;;;;12.00;49.23;100129.35;1469781;89;21347;-79
2023/03/04 10:38:44;;;;;;;37.33;25.07;;;;;;;12.06;47.89;100123.89;1467999;89;21349;-74
2023/03/04 10:41:21;;;;;;;37.77;28.00;;;;;;;12.05;47.98;100116.41;1463881;89;21348;-73
2023/03/04 10:43:52;;;;;;;36.97;26.47;;;;;;;12.07;46.70;100113.59;1469947;89;21521;-74
2023/03/04 10:46:20;;;;;;;39.77;26.60;;;;;;;11.70;46.82;100107.70;1466635;88;22338;-73
2023/03/04 10:48:46;;;;;;;42.13;27.97;;;;;;;11.80;48.30;100102.78;1473534;89;21415;-74
2023/03/04 10:51:23;;;;;;;41.13;26.33;;;;;;;11.82;48.11;100094.14;1444628;89;21393;-75
2023/03/04 10:53:57;;;;;;;37.30;24.83;;;;;;;11.86;47.60;100098.17;1464434;88;21525;-74
2023/03/04 10:56:41;;;;;;;40.40;27.17;;;;;;;11.76;48.03;100094.30;1471823;88;21466;-74
2023/03/04 10:59:46;;;;;;;33.97;25.30;;;;;;;11.75;47.84;100087.34;1467375;89;21304;-78
2023/03/04 11:02:34;;;;;;;42.67;27.70;;;;;;;11.68;47.21;100080.55;1463269;88;22476;-79
2023/03/04 11:05:18;;;;;;;38.37;26.43;;;;;;;11.45;47.30;100068.88;1464130;89;22362;-80
2023/03/04 11:07:49;;;;;;;43.40;27.27;;;;;;;11.65;47.88;100064.98;1465451;89;21528;-80
2023/03/04 11:10:32;;;;;;;38.17;26.13;;;;;;;11.55;47.29;100058.98;1464633;89;21399;-79
2023/03/04 11:13:10;;;;;;;40.73;28.30;;;;;;;11.52;47.12;100057.98;1463640;89;21481;-80
2023/03/04 11:16:04;;;;;;;37.87;26.90;;;;;;;11.60;47.71;100052.70;1456810;88;21392;-79
2023/03/04 11:18:42;;;;;;;38.27;26.97;;;;;;;11.78;47.00;100050.41;1465825;89;22376;-79
2023/03/04 11:21:26;;;;;;;35.90;27.37;;;;;;;11.66;46.96;100046.74;1466668;89;22287;-78
2023/03/04 11:24:00;;;;;;;42.33;29.10;;;;;;;11.70;46.64;100040.11;1465896;89;21570;-80
2023/03/04 11:26:52;;;;;;;40.23;27.30;;;;;;;11.71;47.31;100039.13;1462915;89;21536;-80